sensor_id;sensor_type;location;lat;lon;timestamp;temperature;humidity
20885;DHT22;10602;48.000;9.654;2024-03-02T17:45:23;11.10;1.00
20885;DHT22;10602;48.000;9.654;2024-03-02T17:47:51;9.50;1.00
20885;DHT22;10602;48.000;9.654;2024-03-02T17:50:18;9.50;99.90
20885;DHT22;10602;48.000;9.654;2024-03-02T17:52:46;9.40;1.00
20885;DHT22;10602;48.000;9.654;2024-03-02T17:55:14;9.40;99.90
20885;DHT22;10602;48.000;9.654;2024-03-02T17:57:41;9.30;1.00
20885;DHT22;10602;48.000;9.654;2024-03-02T18:00:09;9.30;1.00
20885;DHT22;10602;48.000;9.654;2024-03-02T18:02:40;9.30;1.00
20885;DHT22;10602;48.000;9.654;2024-03-02T18:05:08;9.20;1.00
20885;DHT22;10602;48.000;9.654;2024-03-02T18:07:36;9.10;1.00
20885;DHT22;10602;48.000;9.654;2024-03-02T18:10:04;9.00;99.90
20885;DHT22;10602;48.000;9.654;2024-03-02T18:12:32;8.90;1.00
20885;DHT22;10602;48.000;9.654;2024-03-02T18:15:00;8.90;1.00
20885;DHT22;10602;48.000;9.654;2024-03-02T18:17:28;8.90;72.30
20885;DHT22;10602;48.000;9.654;2024-03-02T18:19:55;8.80;99.90
20885;DHT22;10602;48.000;9.654;2024-03-02T18:22:23;9.00;99.90
20885;DHT22;10602;48.000;9.654;2024-03-02T18:24:50;8.70;99.90
20885;DHT22;10602;48.000;9.654;2024-03-02T18:27:18;8.60;99.90
20885;DHT22;10602;48.000;9.654;2024-03-02T18:29:45;8.70;1.00
20885;DHT22;10602;48.000;9.654;2024-03-02T18:32:13;8.60;1.00
20885;DHT22;10602;48.000;9.654;2024-03-02T18:34:40;8.50;1.00
20885;DHT22;10602;48.000;9.654;2024-03-02T18:37:08;8.50;1.00
20885;DHT22;10602;48.000;9.654;2024-03-02T18:39:36;8.50;1.00
20885;DHT22;10602;48.000;9.654;2024-03-02T18:42:04;8.40;1.00
20885;DHT22;10602;48.000;9.654;2024-03-02T18:44:31;8.30;1.00
20885;DHT22;10602;48.000;9.654;2024-03-02T18:47:00;8.30;1.00
20885;DHT22;10602;48.000;9.654;2024-03-02T18:49:27;8.20;1.00
20885;DHT22;10602;48.000;9.654;2024-03-02T18:51:55;8.20;1.00
20885;DHT22;10602;48.000;9.654;2024-03-02T18:54:22;8.10;1.00
20885;DHT22;10602;48.000;9.654;2024-03-02T18:56:50;8.10;1.00
20885;DHT22;10602;48.000;9.654;2024-03-02T18:59:17;8.00;1.00
20885;DHT22;10602;48.000;9.654;2024-03-02T19:01:45;7.20;1.00
20885;DHT22;10602;48.000;9.654;2024-03-02T19:04:12;8.00;1.00
20885;DHT22;10602;48.000;9.654;2024-03-02T19:06:40;7.90;1.00
20885;DHT22;10602;48.000;9.654;2024-03-02T19:09:07;7.90;1.00
20885;DHT22;10602;48.000;9.654;2024-03-02T19:11:36;8.40;1.00
20885;DHT22;10602;48.000;9.654;2024-03-02T19:14:03;7.80;1.00
20885;DHT22;10602;48.000;9.654;2024-03-02T19:16:31;7.80;1.00
20885;DHT22;10602;48.000;9.654;2024-03-02T19:18:59;7.70;1.00
20885;DHT22;10602;48.000;9.654;2024-03-02T19:21:27;7.70;1.00
20885;DHT22;10602;48.000;9.654;2024-03-02T19:23:54;7.60;1.00
20885;DHT22;10602;48.000;9.654;2024-03-02T19:26:23;7.60;1.00
20885;DHT22;10602;48.000;9.654;2024-03-02T19:28:50;7.50;1.00
20885;DHT22;10602;48.000;9.654;2024-03-02T19:31:18;7.00;1.00
20885;DHT22;10602;48.000;9.654;2024-03-02T19:33:46;7.40;1.00
20885;DHT22;10602;48.000;9.654;2024-03-02T19:36:13;7.50;1.00
20885;DHT22;10602;48.000;9.654;2024-03-02T19:38:41;7.30;1.00
20885;DHT22;10602;48.000;9.654;2024-03-02T19:41:09;7.30;1.00
20885;DHT22;10602;48.000;9.654;2024-03-02T19:43:37;7.20;1.00
20885;DHT22;10602;48.000;9.654;2024-03-02T19:46:04;7.10;1.00
20885;DHT22;10602;48.000;9.654;2024-03-02T19:48:32;7.10;1.00
20885;DHT22;10602;48.000;9.654;2024-03-02T19:50:59;7.00;1.00
20885;DHT22;10602;48.000;9.654;2024-03-02T19:53:29;7.00;1.00
20885;DHT22;10602;48.000;9.654;2024-03-02T19:55:57;6.90;1.00
20885;DHT22;10602;48.000;9.654;2024-03-02T19:58:24;6.90;9.50
20885;DHT22;10602;48.000;9.654;2024-03-02T20:00:52;6.80;17.10
20885;DHT22;10602;48.000;9.654;2024-03-02T20:03:21;6.80;23.60
20885;DHT22;10602;48.000;9.654;2024-03-02T20:05:49;6.70;30.40
20885;DHT22;10602;48.000;9.654;2024-03-02T20:08:16;6.70;36.30
20885;DHT22;10602;48.000;9.654;2024-03-02T20:10:44;6.60;42.70
20885;DHT22;10602;48.000;9.654;2024-03-02T20:13:11;6.50;50.60
20885;DHT22;10602;48.000;9.654;2024-03-02T20:15:42;6.50;62.70
20885;DHT22;10602;48.000;9.654;2024-03-02T20:18:09;6.50;77.10
20885;DHT22;10602;48.000;9.654;2024-03-02T20:20:37;6.40;86.30
20885;DHT22;10602;48.000;9.654;2024-03-02T20:23:06;6.40;95.10
20885;DHT22;10602;48.000;9.654;2024-03-02T20:25:34;6.40;98.60
20885;DHT22;10602;48.000;9.654;2024-03-02T20:28:01;6.40;99.90
20885;DHT22;10602;48.000;9.654;2024-03-02T20:30:30;6.30;99.90
20885;DHT22;10602;48.000;9.654;2024-03-02T20:32:58;6.30;99.90
20885;DHT22;10602;48.000;9.654;2024-03-02T20:35:25;6.30;99.90
20885;DHT22;10602;48.000;9.654;2024-03-02T20:37:53;6.20;99.90
20885;DHT22;10602;48.000;9.654;2024-03-02T20:40:20;6.10;99.90
20885;DHT22;10602;48.000;9.654;2024-03-02T20:42:48;6.10;99.90
20885;DHT22;10602;48.000;9.654;2024-03-02T20:45:15;6.10;99.90
20885;DHT22;10602;48.000;9.654;2024-03-02T20:47:46;6.00;99.90
20885;DHT22;10602;48.000;9.654;2024-03-02T20:50:13;6.00;99.90
20885;DHT22;10602;48.000;9.654;2024-03-02T20:52:41;5.90;99.90
20885;DHT22;10602;48.000;9.654;2024-03-02T20:55:11;5.80;99.90
20885;DHT22;10602;48.000;9.654;2024-03-02T20:57:39;5.80;99.90
20885;DHT22;10602;48.000;9.654;2024-03-02T21:00:07;5.80;99.90
20885;DHT22;10602;48.000;9.654;2024-03-02T21:02:34;5.70;99.90
20885;DHT22;10602;48.000;9.654;2024-03-02T21:05:02;5.70;99.90
20885;DHT22;10602;48.000;9.654;2024-03-02T21:07:30;5.60;99.90
20885;DHT22;10602;48.000;9.654;2024-03-02T21:09:59;5.60;99.90
20885;DHT22;10602;48.000;9.654;2024-03-02T21:12:27;5.50;99.90
20885;DHT22;10602;48.000;9.654;2024-03-02T21:14:54;5.50;99.90
20885;DHT22;10602;48.000;9.654;2024-03-02T21:17:22;5.40;99.90
20885;DHT22;10602;48.000;9.654;2024-03-02T21:19:49;5.40;99.90
20885;DHT22;10602;48.000;9.654;2024-03-02T21:22:17;5.30;99.90
20885;DHT22;10602;48.000;9.654;2024-03-02T21:24:46;5.30;99.90
20885;DHT22;10602;48.000;9.654;2024-03-02T21:27:14;5.20;99.90
20885;DHT22;10602;48.000;9.654;2024-03-02T21:29:41;5.20;99.90
20885;DHT22;10602;48.000;9.654;2024-03-02T21:32:09;5.20;99.90
20885;DHT22;10602;48.000;9.654;2024-03-02T21:34:36;5.20;99.90
20885;DHT22;10602;48.000;9.654;2024-03-02T21:37:04;5.10;99.90
20885;DHT22;10602;48.000;9.654;2024-03-02T21:39:34;5.10;99.90
20885;DHT22;10602;48.000;9.654;2024-03-02T21:42:02;5.10;99.90
20885;DHT22;10602;48.000;9.654;2024-03-02T21:44:29;5.10;99.90
20885;DHT22;10602;48.000;9.654;2024-03-02T21:46:57;5.10;99.90
20885;DHT22;10602;48.000;9.654;2024-03-02T21:49:24;5.10;99.90
20885;DHT22;10602;48.000;9.654;2024-03-02T21:51:52;5.10;99.90
20885;DHT22;10602;48.000;9.654;2024-03-02T21:54:20;5.10;99.90
20885;DHT22;10602;48.000;9.654;2024-03-02T21:56:48;5.10;99.90
20885;DHT22;10602;48.000;9.654;2024-03-02T21:59:15;5.10;99.90
20885;DHT22;10602;48.000;9.654;2024-03-02T22:01:43;5.10;99.90
20885;DHT22;10602;48.000;9.654;2024-03-02T22:04:10;5.10;99.90
20885;DHT22;10602;48.000;9.654;2024-03-02T22:06:38;5.10;99.90
20885;DHT22;10602;48.000;9.654;2024-03-02T22:09:05;5.10;99.90
20885;DHT22;10602;48.000;9.654;2024-03-02T22:11:33;5.10;99.90
20885;DHT22;10602;48.000;9.654;2024-03-02T22:14:00;5.00;99.90
20885;DHT22;10602;48.000;9.654;2024-03-02T22:16:28;5.00;99.90
20885;DHT22;10602;48.000;9.654;2024-03-02T22:18:55;4.90;99.90
20885;DHT22;10602;48.000;9.654;2024-03-02T22:21:23;4.90;99.90
20885;DHT22;10602;48.000;9.654;2024-03-02T22:23:50;5.00;99.90
20885;DHT22;10602;48.000;9.654;2024-03-02T22:26:18;5.00;99.90
20885;DHT22;10602;48.000;9.654;2024-03-02T22:28:45;4.90;99.90
20885;DHT22;10602;48.000;9.654;2024-03-02T22:31:13;4.90;99.90
20885;DHT22;10602;48.000;9.654;2024-03-02T22:33:40;4.80;99.90
20885;DHT22;10602;48.000;9.654;2024-03-02T22:36:08;4.70;99.90
20885;DHT22;10602;48.000;9.654;2024-03-02T22:38:36;4.70;99.90
20885;DHT22;10602;48.000;9.654;2024-03-02T22:41:04;4.70;99.90
20885;DHT22;10602;48.000;9.654;2024-03-02T22:43:31;4.60;99.90
20885;DHT22;10602;48.000;9.654;2024-03-02T22:45:59;4.60;99.90
20885;DHT22;10602;48.000;9.654;2024-03-02T22:48:26;4.50;99.90
20885;DHT22;10602;48.000;9.654;2024-03-02T22:50:54;4.40;99.90
20885;DHT22;10602;48.000;9.654;2024-03-02T22:53:21;4.30;99.90
20885;DHT22;10602;48.000;9.654;2024-03-02T22:55:49;4.20;99.90
20885;DHT22;10602;48.000;9.654;2024-03-02T22:58:16;4.20;99.90
20885;DHT22;10602;48.000;9.654;2024-03-02T23:00:44;4.10;99.90
20885;DHT22;10602;48.000;9.654;2024-03-02T23:03:15;4.10;99.90
20885;DHT22;10602;48.000;9.654;2024-03-02T23:05:44;4.00;99.90
20885;DHT22;10602;48.000;9.654;2024-03-02T23:08:12;4.00;99.90
20885;DHT22;10602;48.000;9.654;2024-03-02T23:10:41;4.00;99.90
20885;DHT22;10602;48.000;9.654;2024-03-02T23:13:08;3.90;99.90
20885;DHT22;10602;48.000;9.654;2024-03-02T23:15:36;3.90;99.90
20885;DHT22;10602;48.000;9.654;2024-03-02T23:18:04;3.90;99.90
20885;DHT22;10602;48.000;9.654;2024-03-02T23:20:32;3.80;99.90
20885;DHT22;10602;48.000;9.654;2024-03-02T23:22:59;3.80;99.90
20885;DHT22;10602;48.000;9.654;2024-03-02T23:25:28;3.70;99.90
20885;DHT22;10602;48.000;9.654;2024-03-02T23:27:59;3.70;99.90
20885;DHT22;10602;48.000;9.654;2024-03-02T23:30:37;3.70;99.90
20885;DHT22;10602;48.000;9.654;2024-03-02T23:33:14;3.70;99.90
20885;DHT22;10602;48.000;9.654;2024-03-02T23:35:49;3.70;99.90
20885;DHT22;10602;48.000;9.654;2024-03-02T23:38:20;3.60;99.90
20885;DHT22;10602;48.000;9.654;2024-03-02T23:40:50;3.60;99.90
20885;DHT22;10602;48.000;9.654;2024-03-02T23:46:03;3.60;99.90
20885;DHT22;10602;48.000;9.654;2024-03-02T23:48:39;3.60;99.90
20885;DHT22;10602;48.000;9.654;2024-03-02T23:51:13;3.60;99.90
20885;DHT22;10602;48.000;9.654;2024-03-02T23:53:46;3.60;99.90
20885;DHT22;10602;48.000;9.654;2024-03-02T23:56:21;3.60;99.90
20885;DHT22;10602;48.000;9.654;2024-03-02T23:59:00;3.60;99.90
